sensor_id;sensor_type;location;lat;lon;timestamp;P1;durP1;ratioP1;P2;durP2;ratioP2
1747;SDS011;871;47.034;15.394;2023-03-19T05:02:33;47.55;;;12.38;;
1747;SDS011;871;47.034;15.394;2023-03-19T05:04:59;50.80;;;12.25;;
1747;SDS011;871;47.034;15.394;2023-03-19T05:07:26;51.53;;;13.88;;
1747;SDS011;871;47.034;15.394;2023-03-19T05:09:52;50.63;;;13.23;;
1747;SDS011;871;47.034;15.394;2023-03-19T05:12:18;50.97;;;14.30;;
1747;SDS011;871;47.034;15.394;2023-03-19T05:14:45;49.53;;;13.40;;
1747;SDS011;871;47.034;15.394;2023-03-19T05:17:11;53.40;;;14.23;;
1747;SDS011;871;47.034;15.394;2023-03-19T05:19:39;57.58;;;15.30;;
1747;SDS011;871;47.034;15.394;2023-03-19T05:22:05;56.83;;;14.65;;
1747;SDS011;871;47.034;15.394;2023-03-19T05:24:31;56.10;;;14.95;;
1747;SDS011;871;47.034;15.394;2023-03-19T05:26:57;54.55;;;14.50;;
1747;SDS011;871;47.034;15.394;2023-03-19T05:29:23;60.17;;;15.90;;
1747;SDS011;871;47.034;15.394;2023-03-19T05:31:50;52.95;;;13.63;;
1747;SDS011;871;47.034;15.394;2023-03-19T05:34:17;56.72;;;15.63;;
1747;SDS011;871;47.034;15.394;2023-03-19T05:36:43;56.00;;;15.40;;
1747;SDS011;871;47.034;15.394;2023-03-19T05:39:10;58.70;;;15.68;;
1747;SDS011;871;47.034;15.394;2023-03-19T05:41:37;54.92;;;15.43;;
1747;SDS011;871;47.034;15.394;2023-03-19T05:44:04;57.92;;;15.63;;
1747;SDS011;871;47.034;15.394;2023-03-19T05:46:30;55.85;;;15.77;;
1747;SDS011;871;47.034;15.394;2023-03-19T05:48:56;60.78;;;17.33;;
1747;SDS011;871;47.034;15.394;2023-03-19T05:51:22;55.90;;;15.98;;
1747;SDS011;871;47.034;15.394;2023-03-19T05:53:48;52.10;;;14.70;;
1747;SDS011;871;47.034;15.394;2023-03-19T05:56:14;53.20;;;14.50;;
1747;SDS011;871;47.034;15.394;2023-03-19T05:58:41;60.08;;;16.38;;
1747;SDS011;871;47.034;15.394;2023-03-19T06:01:07;61.53;;;15.30;;
1747;SDS011;871;47.034;15.394;2023-03-19T06:03:34;56.58;;;13.23;;
1747;SDS011;871;47.034;15.394;2023-03-19T06:06:00;56.65;;;14.20;;
1747;SDS011;871;47.034;15.394;2023-03-19T06:08:26;58.88;;;15.15;;
1747;SDS011;871;47.034;15.394;2023-03-19T06:10:52;55.75;;;14.32;;
1747;SDS011;871;47.034;15.394;2023-03-19T06:13:18;55.17;;;13.48;;
1747;SDS011;871;47.034;15.394;2023-03-19T06:15:46;55.50;;;14.38;;
1747;SDS011;871;47.034;15.394;2023-03-19T06:18:12;59.15;;;14.13;;
1747;SDS011;871;47.034;15.394;2023-03-19T06:20:38;52.93;;;13.77;;
1747;SDS011;871;47.034;15.394;2023-03-19T06:23:04;53.08;;;13.82;;
1747;SDS011;871;47.034;15.394;2023-03-19T06:25:30;56.13;;;14.52;;
1747;SDS011;871;47.034;15.394;2023-03-19T06:27:56;54.47;;;15.98;;
1747;SDS011;871;47.034;15.394;2023-03-19T06:30:22;60.25;;;14.65;;
1747;SDS011;871;47.034;15.394;2023-03-19T06:32:48;57.85;;;16.98;;
1747;SDS011;871;47.034;15.394;2023-03-19T06:35:14;52.07;;;13.67;;
1747;SDS011;871;47.034;15.394;2023-03-19T06:37:41;54.93;;;15.63;;
1747;SDS011;871;47.034;15.394;2023-03-19T06:40:07;53.57;;;14.43;;
1747;SDS011;871;47.034;15.394;2023-03-19T06:42:33;57.07;;;14.20;;
1747;SDS011;871;47.034;15.394;2023-03-19T06:44:59;55.40;;;14.47;;
1747;SDS011;871;47.034;15.394;2023-03-19T06:47:26;56.13;;;15.03;;
1747;SDS011;871;47.034;15.394;2023-03-19T06:49:52;53.17;;;15.50;;
1747;SDS011;871;47.034;15.394;2023-03-19T06:52:18;50.47;;;13.37;;
1747;SDS011;871;47.034;15.394;2023-03-19T06:54:44;50.83;;;12.27;;
1747;SDS011;871;47.034;15.394;2023-03-19T06:57:10;52.73;;;13.13;;
1747;SDS011;871;47.034;15.394;2023-03-19T06:59:36;54.97;;;13.70;;
1747;SDS011;871;47.034;15.394;2023-03-19T07:02:02;53.90;;;12.63;;
1747;SDS011;871;47.034;15.394;2023-03-19T07:04:29;54.60;;;13.17;;
1747;SDS011;871;47.034;15.394;2023-03-19T07:06:55;52.43;;;12.67;;
1747;SDS011;871;47.034;15.394;2023-03-19T07:09:21;57.37;;;13.13;;
1747;SDS011;871;47.034;15.394;2023-03-19T07:11:47;50.20;;;12.97;;
1747;SDS011;871;47.034;15.394;2023-03-19T07:14:13;55.07;;;13.20;;
1747;SDS011;871;47.034;15.394;2023-03-19T07:16:40;53.03;;;13.20;;
1747;SDS011;871;47.034;15.394;2023-03-19T07:19:06;56.23;;;14.17;;
1747;SDS011;871;47.034;15.394;2023-03-19T07:21:32;52.93;;;13.77;;
1747;SDS011;871;47.034;15.394;2023-03-19T07:23:58;53.17;;;14.00;;
1747;SDS011;871;47.034;15.394;2023-03-19T07:26:24;55.97;;;13.57;;
1747;SDS011;871;47.034;15.394;2023-03-19T07:28:50;54.00;;;15.20;;
1747;SDS011;871;47.034;15.394;2023-03-19T07:31:16;55.10;;;14.50;;
1747;SDS011;871;47.034;15.394;2023-03-19T07:33:42;52.63;;;14.23;;
1747;SDS011;871;47.034;15.394;2023-03-19T07:36:08;51.63;;;13.20;;
1747;SDS011;871;47.034;15.394;2023-03-19T07:38:35;58.00;;;13.20;;
1747;SDS011;871;47.034;15.394;2023-03-19T07:41:01;51.00;;;13.33;;
1747;SDS011;871;47.034;15.394;2023-03-19T07:43:27;54.77;;;14.70;;
1747;SDS011;871;47.034;15.394;2023-03-19T07:45:53;55.73;;;13.27;;
1747;SDS011;871;47.034;15.394;2023-03-19T07:48:20;53.13;;;14.73;;
1747;SDS011;871;47.034;15.394;2023-03-19T07:50:46;53.40;;;14.80;;
1747;SDS011;871;47.034;15.394;2023-03-19T07:53:12;56.60;;;14.80;;
1747;SDS011;871;47.034;15.394;2023-03-19T07:55:38;52.70;;;15.00;;
1747;SDS011;871;47.034;15.394;2023-03-19T07:58:04;53.20;;;15.27;;
1747;SDS011;871;47.034;15.394;2023-03-19T08:00:30;55.67;;;15.20;;
1747;SDS011;871;47.034;15.394;2023-03-19T08:02:57;54.77;;;16.37;;
1747;SDS011;871;47.034;15.394;2023-03-19T08:05:23;54.70;;;15.23;;
1747;SDS011;871;47.034;15.394;2023-03-19T08:07:49;55.67;;;16.93;;
1747;SDS011;871;47.034;15.394;2023-03-19T08:10:15;59.50;;;16.53;;
1747;SDS011;871;47.034;15.394;2023-03-19T08:12:42;49.57;;;14.40;;
1747;SDS011;871;47.034;15.394;2023-03-19T08:15:09;52.43;;;15.33;;
1747;SDS011;871;47.034;15.394;2023-03-19T08:17:36;57.17;;;16.53;;
1747;SDS011;871;47.034;15.394;2023-03-19T08:20:06;62.00;;;17.67;;
1747;SDS011;871;47.034;15.394;2023-03-19T08:22:32;59.30;;;16.93;;
1747;SDS011;871;47.034;15.394;2023-03-19T08:24:59;50.33;;;14.13;;
1747;SDS011;871;47.034;15.394;2023-03-19T08:27:25;53.10;;;14.87;;
1747;SDS011;871;47.034;15.394;2023-03-19T08:29:52;56.00;;;16.23;;
1747;SDS011;871;47.034;15.394;2023-03-19T08:32:18;56.43;;;15.07;;
1747;SDS011;871;47.034;15.394;2023-03-19T08:34:44;54.30;;;14.17;;
1747;SDS011;871;47.034;15.394;2023-03-19T08:37:10;50.80;;;14.13;;
1747;SDS011;871;47.034;15.394;2023-03-19T08:39:36;51.70;;;14.67;;
1747;SDS011;871;47.034;15.394;2023-03-19T08:42:02;67.13;;;15.20;;
1747;SDS011;871;47.034;15.394;2023-03-19T08:44:28;52.03;;;13.60;;
1747;SDS011;871;47.034;15.394;2023-03-19T08:46:54;55.23;;;14.83;;
1747;SDS011;871;47.034;15.394;2023-03-19T08:49:20;57.20;;;14.50;;
1747;SDS011;871;47.034;15.394;2023-03-19T08:51:46;54.30;;;14.93;;
1747;SDS011;871;47.034;15.394;2023-03-19T08:54:13;53.90;;;14.57;;
1747;SDS011;871;47.034;15.394;2023-03-19T08:56:39;57.03;;;17.73;;
1747;SDS011;871;47.034;15.394;2023-03-19T08:59:05;53.07;;;14.97;;
1747;SDS011;871;47.034;15.394;2023-03-19T09:01:31;51.07;;;14.43;;
1747;SDS011;871;47.034;15.394;2023-03-19T09:03:58;54.73;;;15.37;;
1747;SDS011;871;47.034;15.394;2023-03-19T09:06:24;53.43;;;15.00;;
1747;SDS011;871;47.034;15.394;2023-03-19T09:08:50;53.40;;;14.90;;
1747;SDS011;871;47.034;15.394;2023-03-19T09:11:16;50.23;;;13.20;;
1747;SDS011;871;47.034;15.394;2023-03-19T09:13:42;54.63;;;15.00;;
1747;SDS011;871;47.034;15.394;2023-03-19T09:16:08;53.23;;;13.80;;
1747;SDS011;871;47.034;15.394;2023-03-19T09:18:34;55.10;;;15.33;;
1747;SDS011;871;47.034;15.394;2023-03-19T09:21:01;53.60;;;13.07;;
1747;SDS011;871;47.034;15.394;2023-03-19T09:23:27;52.07;;;14.13;;
1747;SDS011;871;47.034;15.394;2023-03-19T09:25:53;56.03;;;15.73;;
1747;SDS011;871;47.034;15.394;2023-03-19T09:28:19;54.27;;;13.43;;
1747;SDS011;871;47.034;15.394;2023-03-19T09:30:46;54.23;;;15.00;;
1747;SDS011;871;47.034;15.394;2023-03-19T09:33:12;52.83;;;13.40;;
1747;SDS011;871;47.034;15.394;2023-03-19T09:35:38;57.47;;;14.23;;
1747;SDS011;871;47.034;15.394;2023-03-19T09:38:05;53.03;;;13.40;;
1747;SDS011;871;47.034;15.394;2023-03-19T09:45:30;52.40;;;12.27;;
1747;SDS011;871;47.034;15.394;2023-03-19T09:48:01;54.10;;;14.97;;
1747;SDS011;871;47.034;15.394;2023-03-19T09:50:29;56.90;;;14.73;;
1747;SDS011;871;47.034;15.394;2023-03-19T09:58:13;52.60;;;14.37;;
1747;SDS011;871;47.034;15.394;2023-03-19T10:00:40;54.17;;;14.30;;
1747;SDS011;871;47.034;15.394;2023-03-19T10:10:48;57.37;;;14.80;;
1747;SDS011;871;47.034;15.394;2023-03-19T10:16:01;52.60;;;13.43;;
1747;SDS011;871;47.034;15.394;2023-03-19T10:18:31;53.20;;;13.50;;
1747;SDS011;871;47.034;15.394;2023-03-19T10:21:12;52.60;;;12.40;;
1747;SDS011;871;47.034;15.394;2023-03-19T10:23:49;52.57;;;12.47;;
1747;SDS011;871;47.034;15.394;2023-03-19T10:26:18;52.17;;;13.00;;
1747;SDS011;871;47.034;15.394;2023-03-19T10:29:08;51.87;;;12.83;;
1747;SDS011;871;47.034;15.394;2023-03-19T10:31:42;54.60;;;13.37;;
1747;SDS011;871;47.034;15.394;2023-03-19T10:36:57;51.20;;;13.77;;
1747;SDS011;871;47.034;15.394;2023-03-19T10:39:24;51.20;;;12.73;;
1747;SDS011;871;47.034;15.394;2023-03-19T10:41:57;53.77;;;12.43;;
1747;SDS011;871;47.034;15.394;2023-03-19T10:46:57;55.73;;;13.30;;
1747;SDS011;871;47.034;15.394;2023-03-19T10:49:24;49.53;;;12.03;;
1747;SDS011;871;47.034;15.394;2023-03-19T10:51:50;53.33;;;12.27;;
1747;SDS011;871;47.034;15.394;2023-03-19T10:54:20;54.83;;;11.83;;
1747;SDS011;871;47.034;15.394;2023-03-19T10:56:47;52.13;;;14.00;;
1747;SDS011;871;47.034;15.394;2023-03-19T11:01:49;54.50;;;13.20;;
1747;SDS011;871;47.034;15.394;2023-03-19T11:04:21;53.67;;;12.80;;
1747;SDS011;871;47.034;15.394;2023-03-19T11:06:48;52.23;;;12.97;;
1747;SDS011;871;47.034;15.394;2023-03-19T11:09:18;53.17;;;13.73;;
1747;SDS011;871;47.034;15.394;2023-03-19T11:11:46;58.27;;;13.67;;
1747;SDS011;871;47.034;15.394;2023-03-19T11:14:17;53.30;;;12.40;;
1747;SDS011;871;47.034;15.394;2023-03-19T11:19:21;49.40;;;12.13;;
1747;SDS011;871;47.034;15.394;2023-03-19T11:22:00;51.80;;;11.87;;
1747;SDS011;871;47.034;15.394;2023-03-19T11:24:27;52.33;;;12.70;;
1747;SDS011;871;47.034;15.394;2023-03-19T11:26:56;53.30;;;14.17;;
1747;SDS011;871;47.034;15.394;2023-03-19T11:29:25;56.70;;;14.37;;
1747;SDS011;871;47.034;15.394;2023-03-19T11:37:00;51.53;;;12.70;;
1747;SDS011;871;47.034;15.394;2023-03-19T11:39:32;53.60;;;11.67;;
1747;SDS011;871;47.034;15.394;2023-03-19T11:42:07;54.33;;;12.67;;
1747;SDS011;871;47.034;15.394;2023-03-19T11:50:14;58.87;;;16.97;;
1747;SDS011;871;47.034;15.394;2023-03-19T12:00:51;50.77;;;12.53;;
1747;SDS011;871;47.034;15.394;2023-03-19T12:06:18;54.93;;;13.63;;
1747;SDS011;871;47.034;15.394;2023-03-19T12:11:42;54.47;;;13.63;;
1747;SDS011;871;47.034;15.394;2023-03-19T12:22:22;56.53;;;14.67;;
1747;SDS011;871;47.034;15.394;2023-03-19T12:35:20;54.63;;;14.73;;
1747;SDS011;871;47.034;15.394;2023-03-19T12:37:59;53.33;;;13.53;;
1747;SDS011;871;47.034;15.394;2023-03-19T12:40:28;53.33;;;14.33;;
1747;SDS011;871;47.034;15.394;2023-03-19T12:42:57;54.97;;;14.63;;
1747;SDS011;871;47.034;15.394;2023-03-19T12:45:35;52.93;;;13.60;;
1747;SDS011;871;47.034;15.394;2023-03-19T12:48:05;51.07;;;13.63;;
1747;SDS011;871;47.034;15.394;2023-03-19T12:50:34;53.93;;;13.30;;
1747;SDS011;871;47.034;15.394;2023-03-19T12:53:02;54.73;;;13.50;;
1747;SDS011;871;47.034;15.394;2023-03-19T12:55:51;57.87;;;13.60;;
1747;SDS011;871;47.034;15.394;2023-03-19T12:58:22;62.27;;;13.40;;
1747;SDS011;871;47.034;15.394;2023-03-19T13:00:57;56.13;;;14.47;;
1747;SDS011;871;47.034;15.394;2023-03-19T13:03:31;53.00;;;12.93;;
1747;SDS011;871;47.034;15.394;2023-03-19T13:06:07;50.90;;;11.80;;
1747;SDS011;871;47.034;15.394;2023-03-19T13:08:36;54.53;;;13.37;;
1747;SDS011;871;47.034;15.394;2023-03-19T13:11:03;55.73;;;12.50;;
1747;SDS011;871;47.034;15.394;2023-03-19T13:13:33;53.83;;;13.33;;
1747;SDS011;871;47.034;15.394;2023-03-19T13:18:35;50.70;;;12.27;;
1747;SDS011;871;47.034;15.394;2023-03-19T13:23:33;53.53;;;12.37;;
1747;SDS011;871;47.034;15.394;2023-03-19T13:26:01;55.80;;;12.40;;
1747;SDS011;871;47.034;15.394;2023-03-19T13:28:33;50.67;;;11.93;;
1747;SDS011;871;47.034;15.394;2023-03-19T13:31:06;51.00;;;12.30;;
1747;SDS011;871;47.034;15.394;2023-03-19T13:33:36;52.70;;;12.30;;
1747;SDS011;871;47.034;15.394;2023-03-19T13:36:09;52.17;;;11.90;;
1747;SDS011;871;47.034;15.394;2023-03-19T13:38:46;53.20;;;11.00;;
1747;SDS011;871;47.034;15.394;2023-03-19T13:41:46;54.10;;;13.03;;
1747;SDS011;871;47.034;15.394;2023-03-19T13:46:47;52.43;;;12.10;;
1747;SDS011;871;47.034;15.394;2023-03-19T13:51:49;53.00;;;11.80;;
1747;SDS011;871;47.034;15.394;2023-03-19T13:54:16;51.53;;;12.07;;
1747;SDS011;871;47.034;15.394;2023-03-19T13:57:31;56.87;;;12.27;;
1747;SDS011;871;47.034;15.394;2023-03-19T13:59:41;56.53;;;14.17;;
1747;SDS011;871;47.034;15.394;2023-03-19T14:05:31;52.10;;;12.63;;
1747;SDS011;871;47.034;15.394;2023-03-19T14:07:36;53.00;;;13.10;;
1747;SDS011;871;47.034;15.394;2023-03-19T14:10:07;52.37;;;11.17;;
1747;SDS011;871;47.034;15.394;2023-03-19T14:12:39;49.70;;;11.40;;
1747;SDS011;871;47.034;15.394;2023-03-19T14:17:35;53.30;;;12.90;;
1747;SDS011;871;47.034;15.394;2023-03-19T14:20:04;52.03;;;12.17;;
1747;SDS011;871;47.034;15.394;2023-03-19T14:22:34;50.80;;;13.60;;
1747;SDS011;871;47.034;15.394;2023-03-19T14:25:23;55.00;;;13.70;;
1747;SDS011;871;47.034;15.394;2023-03-19T14:27:49;53.10;;;12.47;;
1747;SDS011;871;47.034;15.394;2023-03-19T14:32:44;53.37;;;12.27;;
1747;SDS011;871;47.034;15.394;2023-03-19T14:35:13;52.80;;;12.37;;
1747;SDS011;871;47.034;15.394;2023-03-19T14:37:45;52.00;;;11.73;;
1747;SDS011;871;47.034;15.394;2023-03-19T14:40:14;50.83;;;11.77;;
1747;SDS011;871;47.034;15.394;2023-03-19T14:42:57;51.17;;;11.77;;
1747;SDS011;871;47.034;15.394;2023-03-19T14:45:30;57.83;;;12.40;;
1747;SDS011;871;47.034;15.394;2023-03-19T14:53:12;52.57;;;12.30;;
1747;SDS011;871;47.034;15.394;2023-03-19T14:55:41;52.83;;;13.20;;
1747;SDS011;871;47.034;15.394;2023-03-19T14:58:10;55.47;;;12.23;;
1747;SDS011;871;47.034;15.394;2023-03-19T15:00:59;52.67;;;11.67;;
1747;SDS011;871;47.034;15.394;2023-03-19T15:03:32;51.37;;;12.10;;
1747;SDS011;871;47.034;15.394;2023-03-19T15:05:58;50.00;;;10.90;;
1747;SDS011;871;47.034;15.394;2023-03-19T15:08:26;49.90;;;11.57;;
1747;SDS011;871;47.034;15.394;2023-03-19T15:19:30;51.07;;;11.17;;
1747;SDS011;871;47.034;15.394;2023-03-19T15:22:04;51.93;;;12.53;;
1747;SDS011;871;47.034;15.394;2023-03-19T15:24:30;56.30;;;14.03;;
1747;SDS011;871;47.034;15.394;2023-03-19T15:26:56;52.27;;;11.93;;
1747;SDS011;871;47.034;15.394;2023-03-19T15:29:29;50.80;;;12.10;;
1747;SDS011;871;47.034;15.394;2023-03-19T15:31:56;55.10;;;12.50;;
1747;SDS011;871;47.034;15.394;2023-03-19T15:34:23;54.53;;;12.33;;
1747;SDS011;871;47.034;15.394;2023-03-19T15:37:00;59.10;;;13.70;;
1747;SDS011;871;47.034;15.394;2023-03-19T15:39:28;56.97;;;12.10;;
1747;SDS011;871;47.034;15.394;2023-03-19T15:41:55;50.03;;;11.77;;
1747;SDS011;871;47.034;15.394;2023-03-19T15:44:42;51.33;;;11.80;;
1747;SDS011;871;47.034;15.394;2023-03-19T15:47:11;51.77;;;12.17;;
1747;SDS011;871;47.034;15.394;2023-03-19T15:49:38;53.57;;;12.20;;
1747;SDS011;871;47.034;15.394;2023-03-19T15:52:07;56.20;;;11.20;;
1747;SDS011;871;47.034;15.394;2023-03-19T15:54:36;56.00;;;12.90;;
1747;SDS011;871;47.034;15.394;2023-03-19T15:57:04;58.10;;;13.53;;
1747;SDS011;871;47.034;15.394;2023-03-19T15:59:31;55.50;;;13.20;;
1747;SDS011;871;47.034;15.394;2023-03-19T16:01:58;53.90;;;13.40;;
1747;SDS011;871;47.034;15.394;2023-03-19T16:04:25;53.40;;;13.97;;
1747;SDS011;871;47.034;15.394;2023-03-19T16:06:53;56.93;;;15.30;;
1747;SDS011;871;47.034;15.394;2023-03-19T16:11:47;50.90;;;12.37;;
1747;SDS011;871;47.034;15.394;2023-03-19T16:16:46;56.90;;;12.50;;
1747;SDS011;871;47.034;15.394;2023-03-19T16:21:58;51.67;;;13.27;;
1747;SDS011;871;47.034;15.394;2023-03-19T16:24:34;54.80;;;14.70;;
1747;SDS011;871;47.034;15.394;2023-03-19T16:27:11;52.10;;;12.83;;
1747;SDS011;871;47.034;15.394;2023-03-19T16:29:42;52.57;;;12.40;;
1747;SDS011;871;47.034;15.394;2023-03-19T16:39:54;54.73;;;13.20;;
1747;SDS011;871;47.034;15.394;2023-03-19T16:44:57;53.63;;;12.90;;
1747;SDS011;871;47.034;15.394;2023-03-19T16:47:27;53.80;;;14.03;;
1747;SDS011;871;47.034;15.394;2023-03-19T16:49:53;53.70;;;13.37;;
1747;SDS011;871;47.034;15.394;2023-03-19T16:52:21;51.50;;;14.50;;
1747;SDS011;871;47.034;15.394;2023-03-19T16:54:47;60.10;;;13.03;;
1747;SDS011;871;47.034;15.394;2023-03-19T16:57:16;52.10;;;13.43;;
1747;SDS011;871;47.034;15.394;2023-03-19T16:59:42;57.37;;;12.57;;
1747;SDS011;871;47.034;15.394;2023-03-19T17:02:11;53.50;;;12.80;;
1747;SDS011;871;47.034;15.394;2023-03-19T17:04:38;53.00;;;13.10;;
1747;SDS011;871;47.034;15.394;2023-03-19T17:07:04;53.80;;;12.33;;
1747;SDS011;871;47.034;15.394;2023-03-19T17:09:31;60.53;;;14.60;;
1747;SDS011;871;47.034;15.394;2023-03-19T17:11:57;56.80;;;13.67;;
1747;SDS011;871;47.034;15.394;2023-03-19T17:14:25;55.27;;;14.60;;
1747;SDS011;871;47.034;15.394;2023-03-19T17:16:52;54.80;;;14.40;;
1747;SDS011;871;47.034;15.394;2023-03-19T17:19:20;56.47;;;13.70;;
1747;SDS011;871;47.034;15.394;2023-03-19T17:21:56;58.50;;;13.60;;
1747;SDS011;871;47.034;15.394;2023-03-19T17:24:30;53.30;;;13.03;;
1747;SDS011;871;47.034;15.394;2023-03-19T17:26:57;54.23;;;13.63;;
1747;SDS011;871;47.034;15.394;2023-03-19T17:29:24;50.00;;;11.63;;
1747;SDS011;871;47.034;15.394;2023-03-19T17:31:52;50.57;;;12.40;;
1747;SDS011;871;47.034;15.394;2023-03-19T17:34:22;54.80;;;12.83;;
1747;SDS011;871;47.034;15.394;2023-03-19T17:36:52;52.80;;;13.40;;
1747;SDS011;871;47.034;15.394;2023-03-19T17:39:20;65.93;;;15.80;;
1747;SDS011;871;47.034;15.394;2023-03-19T17:41:47;60.37;;;16.90;;
1747;SDS011;871;47.034;15.394;2023-03-19T17:44:15;54.00;;;15.17;;
1747;SDS011;871;47.034;15.394;2023-03-19T17:46:44;53.97;;;13.70;;
1747;SDS011;871;47.034;15.394;2023-03-19T17:49:20;59.83;;;14.07;;
1747;SDS011;871;47.034;15.394;2023-03-19T17:51:49;57.17;;;16.03;;
1747;SDS011;871;47.034;15.394;2023-03-19T17:54:16;61.07;;;16.23;;
1747;SDS011;871;47.034;15.394;2023-03-19T17:56:42;60.63;;;18.10;;
1747;SDS011;871;47.034;15.394;2023-03-19T17:59:09;66.10;;;20.70;;
1747;SDS011;871;47.034;15.394;2023-03-19T18:01:36;74.83;;;22.53;;
1747;SDS011;871;47.034;15.394;2023-03-19T18:04:03;74.60;;;24.20;;
1747;SDS011;871;47.034;15.394;2023-03-19T18:06:33;67.07;;;21.70;;
1747;SDS011;871;47.034;15.394;2023-03-19T18:09:00;66.53;;;22.10;;
1747;SDS011;871;47.034;15.394;2023-03-19T18:11:28;62.20;;;19.30;;
1747;SDS011;871;47.034;15.394;2023-03-19T18:13:54;62.20;;;18.23;;
1747;SDS011;871;47.034;15.394;2023-03-19T18:18:48;67.30;;;18.13;;
1747;SDS011;871;47.034;15.394;2023-03-19T18:21:15;58.13;;;16.50;;
1747;SDS011;871;47.034;15.394;2023-03-19T18:23:42;55.50;;;15.93;;
1747;SDS011;871;47.034;15.394;2023-03-19T18:26:09;60.30;;;15.97;;
1747;SDS011;871;47.034;15.394;2023-03-19T18:28:36;56.90;;;16.70;;
1747;SDS011;871;47.034;15.394;2023-03-19T18:31:02;64.20;;;16.20;;
1747;SDS011;871;47.034;15.394;2023-03-19T18:33:30;60.50;;;16.13;;
1747;SDS011;871;47.034;15.394;2023-03-19T18:35:57;55.10;;;15.70;;
1747;SDS011;871;47.034;15.394;2023-03-19T18:38:24;58.10;;;15.90;;
1747;SDS011;871;47.034;15.394;2023-03-19T18:40:51;57.20;;;16.70;;
1747;SDS011;871;47.034;15.394;2023-03-19T18:43:18;61.43;;;17.47;;
1747;SDS011;871;47.034;15.394;2023-03-19T18:45:46;59.63;;;16.70;;
1747;SDS011;871;47.034;15.394;2023-03-19T18:48:22;58.67;;;17.13;;
1747;SDS011;871;47.034;15.394;2023-03-19T18:50:50;55.97;;;15.60;;
1747;SDS011;871;47.034;15.394;2023-03-19T18:53:16;56.40;;;15.60;;
1747;SDS011;871;47.034;15.394;2023-03-19T18:55:43;63.93;;;17.00;;
1747;SDS011;871;47.034;15.394;2023-03-19T18:58:20;55.27;;;17.07;;
1747;SDS011;871;47.034;15.394;2023-03-19T19:00:47;52.87;;;13.80;;
1747;SDS011;871;47.034;15.394;2023-03-19T19:03:14;53.93;;;14.37;;
1747;SDS011;871;47.034;15.394;2023-03-19T19:05:41;57.00;;;16.00;;
1747;SDS011;871;47.034;15.394;2023-03-19T19:08:13;58.73;;;14.67;;
1747;SDS011;871;47.034;15.394;2023-03-19T19:10:41;60.00;;;15.33;;
1747;SDS011;871;47.034;15.394;2023-03-19T19:13:12;59.10;;;15.77;;
1747;SDS011;871;47.034;15.394;2023-03-19T19:15:40;55.03;;;14.83;;
1747;SDS011;871;47.034;15.394;2023-03-19T19:18:16;52.77;;;13.27;;
1747;SDS011;871;47.034;15.394;2023-03-19T19:20:44;56.70;;;13.33;;
1747;SDS011;871;47.034;15.394;2023-03-19T19:23:11;55.63;;;13.60;;
1747;SDS011;871;47.034;15.394;2023-03-19T19:25:38;51.10;;;13.30;;
1747;SDS011;871;47.034;15.394;2023-03-19T19:28:05;52.00;;;14.00;;
1747;SDS011;871;47.034;15.394;2023-03-19T19:30:35;53.57;;;14.07;;
1747;SDS011;871;47.034;15.394;2023-03-19T19:33:02;54.10;;;14.27;;
1747;SDS011;871;47.034;15.394;2023-03-19T19:35:29;54.10;;;13.73;;
1747;SDS011;871;47.034;15.394;2023-03-19T19:37:56;51.53;;;13.70;;
1747;SDS011;871;47.034;15.394;2023-03-19T19:40:26;54.17;;;14.10;;
1747;SDS011;871;47.034;15.394;2023-03-19T19:42:54;52.43;;;13.37;;
1747;SDS011;871;47.034;15.394;2023-03-19T19:45:24;55.47;;;12.43;;
1747;SDS011;871;47.034;15.394;2023-03-19T19:47:51;53.87;;;12.30;;
1747;SDS011;871;47.034;15.394;2023-03-19T19:50:18;51.90;;;12.83;;
1747;SDS011;871;47.034;15.394;2023-03-19T19:52:47;50.03;;;12.40;;
1747;SDS011;871;47.034;15.394;2023-03-19T19:55:14;53.53;;;14.40;;
1747;SDS011;871;47.034;15.394;2023-03-19T19:57:41;51.87;;;12.23;;
1747;SDS011;871;47.034;15.394;2023-03-19T20:00:17;51.37;;;13.47;;
1747;SDS011;871;47.034;15.394;2023-03-19T20:02:45;49.67;;;13.13;;
1747;SDS011;871;47.034;15.394;2023-03-19T20:05:16;54.73;;;13.37;;
1747;SDS011;871;47.034;15.394;2023-03-19T20:07:43;52.23;;;14.50;;
1747;SDS011;871;47.034;15.394;2023-03-19T20:10:09;53.40;;;12.63;;
1747;SDS011;871;47.034;15.394;2023-03-19T20:12:37;52.70;;;13.77;;
1747;SDS011;871;47.034;15.394;2023-03-19T20:15:04;48.23;;;11.77;;
1747;SDS011;871;47.034;15.394;2023-03-19T20:17:38;51.10;;;12.87;;
1747;SDS011;871;47.034;15.394;2023-03-19T20:20:12;51.50;;;13.23;;
1747;SDS011;871;47.034;15.394;2023-03-19T20:22:40;50.07;;;12.63;;
1747;SDS011;871;47.034;15.394;2023-03-19T20:25:08;51.53;;;13.07;;
1747;SDS011;871;47.034;15.394;2023-03-19T20:27:36;49.53;;;12.40;;
1747;SDS011;871;47.034;15.394;2023-03-19T20:30:03;57.93;;;14.80;;
1747;SDS011;871;47.034;15.394;2023-03-19T20:32:31;55.07;;;15.83;;
1747;SDS011;871;47.034;15.394;2023-03-19T20:34:58;50.90;;;12.60;;
1747;SDS011;871;47.034;15.394;2023-03-19T20:37:26;54.40;;;13.10;;
1747;SDS011;871;47.034;15.394;2023-03-19T20:39:52;53.23;;;12.33;;
1747;SDS011;871;47.034;15.394;2023-03-19T20:42:19;53.10;;;12.90;;
1747;SDS011;871;47.034;15.394;2023-03-19T20:44:45;50.97;;;12.90;;
1747;SDS011;871;47.034;15.394;2023-03-19T20:47:13;51.00;;;13.43;;
1747;SDS011;871;47.034;15.394;2023-03-19T20:49:42;54.37;;;13.10;;
1747;SDS011;871;47.034;15.394;2023-03-19T20:52:09;52.67;;;14.60;;
1747;SDS011;871;47.034;15.394;2023-03-19T20:54:36;51.30;;;11.70;;
1747;SDS011;871;47.034;15.394;2023-03-19T20:57:15;52.40;;;13.33;;
1747;SDS011;871;47.034;15.394;2023-03-19T20:59:42;49.50;;;12.97;;
1747;SDS011;871;47.034;15.394;2023-03-19T21:02:14;55.40;;;15.37;;
1747;SDS011;871;47.034;15.394;2023-03-19T21:04:41;59.50;;;17.60;;
1747;SDS011;871;47.034;15.394;2023-03-19T21:07:20;54.30;;;14.07;;
1747;SDS011;871;47.034;15.394;2023-03-19T21:09:48;51.37;;;14.07;;
1747;SDS011;871;47.034;15.394;2023-03-19T21:12:29;52.10;;;13.37;;
1747;SDS011;871;47.034;15.394;2023-03-19T21:14:56;51.00;;;13.80;;
1747;SDS011;871;47.034;15.394;2023-03-19T21:17:23;53.43;;;12.30;;
1747;SDS011;871;47.034;15.394;2023-03-19T21:19:49;49.27;;;12.17;;
1747;SDS011;871;47.034;15.394;2023-03-19T21:22:18;53.30;;;14.73;;
1747;SDS011;871;47.034;15.394;2023-03-19T21:24:46;54.43;;;14.40;;
1747;SDS011;871;47.034;15.394;2023-03-19T21:27:21;56.33;;;12.60;;
1747;SDS011;871;47.034;15.394;2023-03-19T21:29:49;53.60;;;14.87;;
1747;SDS011;871;47.034;15.394;2023-03-19T21:32:15;57.80;;;16.80;;
1747;SDS011;871;47.034;15.394;2023-03-19T21:34:46;53.97;;;14.67;;
1747;SDS011;871;47.034;15.394;2023-03-19T21:37:16;53.67;;;14.10;;
1747;SDS011;871;47.034;15.394;2023-03-19T21:39:43;55.27;;;14.40;;
1747;SDS011;871;47.034;15.394;2023-03-19T21:42:17;53.80;;;14.30;;
1747;SDS011;871;47.034;15.394;2023-03-19T21:44:44;56.83;;;14.17;;
1747;SDS011;871;47.034;15.394;2023-03-19T21:47:11;56.57;;;14.87;;
1747;SDS011;871;47.034;15.394;2023-03-19T21:49:38;54.83;;;15.60;;
1747;SDS011;871;47.034;15.394;2023-03-19T21:52:04;56.40;;;15.27;;
1747;SDS011;871;47.034;15.394;2023-03-19T21:54:30;53.73;;;15.07;;
1747;SDS011;871;47.034;15.394;2023-03-19T21:56:57;54.00;;;14.53;;
